Time;durP1;ratioP1;P1;durP2;ratioP2;P2;SDS_P1;SDS_P2;PMS_P1;PMS_P2;Temp;Humidity;BMP_temperature;BMP_pressure;BME280_temperature;BME280_humidity;BME280_pressure;Samples;Min_cycle;Max_cycle;Signal;HPM_P1;HPM_P2
2023/05/05 00:02:05;;;;;;;9.55;5.70;;;;;;;;;;4998595;28;20503;-80
2023/05/05 00:04:32;;;;;;;11.27;5.32;;;;;;;;;;5014990;28;20424;-80
2023/05/05 00:06:58;;;;;;;11.75;5.05;;;;;;;;;;5010843;28;20419;-80
2023/05/05 00:09:26;;;;;;;9.32;5.45;;;;;;;;;;5023378;28;20425;-80
2023/05/05 00:11:52;;;;;;;8.27;4.72;;;;;;;;;;5014791;28;20423;-81
2023/05/05 00:14:19;;;;;;;10.00;5.68;;;;;;;;;;5025912;28;20524;-80
2023/05/05 00:16:45;;;;;;;7.97;4.50;;;;;;;;;;5019309;28;20418;-80
2023/05/05 00:19:12;;;;;;;8.32;5.10;;;;;;;;;;5006069;28;20433;-80
2023/05/05 00:21:38;;;;;;;14.30;5.33;;;;;;;;;;5010312;28;20413;-80
2023/05/05 00:24:05;;;;;;;11.10;4.90;;;;;;;;;;5014038;28;20416;-81
2023/05/05 00:26:33;;;;;;;7.50;4.82;;;;;;;;;;5008659;28;20420;-80
2023/05/05 00:28:59;;;;;;;16.10;5.30;;;;;;;;;;4998079;28;20424;-81
2023/05/05 00:31:25;;;;;;;9.45;4.60;;;;;;;;;;5013920;28;20420;-80
2023/05/05 00:33:52;;;;;;;8.73;5.07;;;;;;;;;;5018512;28;20448;-81
2023/05/05 00:36:18;;;;;;;13.10;5.13;;;;;;;;;;5018426;28;20418;-80
2023/05/05 00:38:44;;;;;;;8.03;4.97;;;;;;;;;;5017400;28;20771;-80
2023/05/05 00:41:11;;;;;;;9.00;4.78;;;;;;;;;;5028237;28;20429;-80
2023/05/05 00:43:38;;;;;;;11.70;5.53;;;;;;;;;;5009935;28;20803;-81
2023/05/05 00:46:09;;;;;;;10.07;5.20;;;;;;;;;;5019324;28;20938;-80
2023/05/05 00:48:36;;;;;;;10.70;4.85;;;;;;;;;;5017335;28;20412;-80
2023/05/05 00:51:07;;;;;;;10.63;4.80;;;;;;;;;;5018501;28;20417;-81
2023/05/05 00:53:33;;;;;;;12.43;4.80;;;;;;;;;;5025347;28;20471;-80
2023/05/05 00:55:59;;;;;;;10.00;5.30;;;;;;;;;;5017505;28;20789;-80
2023/05/05 00:58:28;;;;;;;6.50;4.88;;;;;;;;;;5020962;28;21547;-80
2023/05/05 01:00:56;;;;;;;7.80;4.70;;;;;;;;;;5016774;28;20427;-80
2023/05/05 01:03:22;;;;;;;9.13;5.20;;;;;;;;;;5025866;28;20416;-80
2023/05/05 01:05:51;;;;;;;7.20;5.30;;;;;;;;;;5024047;28;20464;-80
2023/05/05 01:08:27;;;;;;;11.25;5.30;;;;;;;;;;5021639;28;20470;-80
2023/05/05 01:10:57;;;;;;;12.48;4.85;;;;;;;;;;5020139;28;20930;-80
2023/05/05 01:13:26;;;;;;;8.15;5.15;;;;;;;;;;5023480;28;20418;-80
2023/05/05 01:15:56;;;;;;;7.50;5.30;;;;;;;;;;5032934;28;20787;-80
2023/05/05 01:18:29;;;;;;;11.30;5.35;;;;;;;;;;5024581;28;20430;-80
2023/05/05 01:20:59;;;;;;;10.18;4.90;;;;;;;;;;5019546;28;20816;-80
2023/05/05 01:23:37;;;;;;;8.48;5.10;;;;;;;;;;5024604;28;20419;-80
2023/05/05 01:26:10;;;;;;;10.20;5.15;;;;;;;;;;5022076;28;20524;-80
2023/05/05 01:28:50;;;;;;;10.80;5.30;;;;;;;;;;5028646;28;20417;-80
2023/05/05 01:31:21;;;;;;;8.80;4.82;;;;;;;;;;5023795;28;20420;-80
2023/05/05 01:33:53;;;;;;;7.75;4.72;;;;;;;;;;5022907;28;20426;-80
2023/05/05 01:36:23;;;;;;;7.82;5.38;;;;;;;;;;5024121;28;20430;-81
2023/05/05 01:38:51;;;;;;;7.95;4.70;;;;;;;;;;5025978;28;20420;-80
2023/05/05 01:41:19;;;;;;;10.70;5.28;;;;;;;;;;5032707;28;20418;-80
2023/05/05 01:43:48;;;;;;;10.40;5.15;;;;;;;;;;5024260;28;20420;-80
2023/05/05 01:46:15;;;;;;;9.88;5.50;;;;;;;;;;5010123;28;20428;-80
2023/05/05 01:48:43;;;;;;;9.10;5.00;;;;;;;;;;5021351;28;20953;-80
2023/05/05 01:51:11;;;;;;;8.25;4.90;;;;;;;;;;5022628;28;20422;-80
2023/05/05 01:53:38;;;;;;;8.07;5.10;;;;;;;;;;5021656;28;20416;-80
2023/05/05 01:56:05;;;;;;;9.83;4.50;;;;;;;;;;5022827;28;20428;-80
2023/05/05 01:58:32;;;;;;;10.80;4.50;;;;;;;;;;5025906;28;20425;-80
2023/05/05 02:00:59;;;;;;;8.55;4.97;;;;;;;;;;5024792;28;20422;-82
2023/05/05 02:03:26;;;;;;;8.07;4.70;;;;;;;;;;5026334;28;20418;-80
2023/05/05 02:05:53;;;;;;;7.25;4.80;;;;;;;;;;5022522;28;20424;-80
2023/05/05 02:08:21;;;;;;;8.17;5.10;;;;;;;;;;5026110;28;20420;-80
2023/05/05 02:10:48;;;;;;;9.30;4.63;;;;;;;;;;5029676;28;20433;-80
2023/05/05 02:13:15;;;;;;;8.57;4.60;;;;;;;;;;5017813;28;20408;-80
2023/05/05 02:15:42;;;;;;;6.40;4.15;;;;;;;;;;5016484;28;20512;-80
2023/05/05 02:18:09;;;;;;;9.20;4.88;;;;;;;;;;5018213;28;20421;-80
2023/05/05 02:20:37;;;;;;;10.25;4.80;;;;;;;;;;5013380;28;20426;-80
2023/05/05 02:23:04;;;;;;;8.63;4.95;;;;;;;;;;5022114;28;20414;-81
2023/05/05 02:25:35;;;;;;;11.05;4.75;;;;;;;;;;5024257;28;20842;-81
2023/05/05 02:28:02;;;;;;;9.35;5.13;;;;;;;;;;5043126;22;20401;-80
2023/05/05 02:30:31;;;;;;;12.73;5.18;;;;;;;;;;5014836;28;20432;-78
2023/05/05 02:33:00;;;;;;;7.65;4.72;;;;;;;;;;5012236;28;20428;-80
2023/05/05 02:35:28;;;;;;;8.80;4.60;;;;;;;;;;5019672;28;20425;-80
2023/05/05 02:37:58;;;;;;;9.15;5.20;;;;;;;;;;5002600;28;20452;-79
2023/05/05 02:40:27;;;;;;;9.02;4.95;;;;;;;;;;4993036;28;20845;-80
2023/05/05 02:42:56;;;;;;;11.70;5.15;;;;;;;;;;4989484;28;20792;-80
2023/05/05 02:45:23;;;;;;;9.10;5.20;;;;;;;;;;4992781;28;20437;-80
2023/05/05 02:47:49;;;;;;;10.00;5.13;;;;;;;;;;4990634;28;20428;-79
2023/05/05 02:50:16;;;;;;;9.02;4.70;;;;;;;;;;4997800;28;20426;-80
2023/05/05 02:52:42;;;;;;;9.15;4.95;;;;;;;;;;4991107;28;20928;-81
2023/05/05 02:55:09;;;;;;;8.02;4.47;;;;;;;;;;4992319;28;20429;-80
2023/05/05 02:57:38;;;;;;;8.93;4.60;;;;;;;;;;4988595;28;20436;-79
2023/05/05 03:00:08;;;;;;;10.50;5.38;;;;;;;;;;4992363;28;20800;-79
2023/05/05 03:02:38;;;;;;;8.45;4.65;;;;;;;;;;4988876;28;20430;-79
2023/05/05 03:05:09;;;;;;;9.93;5.38;;;;;;;;;;4992882;28;20430;-78
2023/05/05 03:07:39;;;;;;;11.38;5.47;;;;;;;;;;4989604;28;20434;-78
2023/05/05 03:10:18;;;;;;;10.80;5.32;;;;;;;;;;4995169;28;20427;-80
2023/05/05 03:12:46;;;;;;;18.23;4.90;;;;;;;;;;4990843;28;20852;-79
2023/05/05 03:15:14;;;;;;;12.70;5.63;;;;;;;;;;4991747;28;20962;-79
2023/05/05 03:17:45;;;;;;;11.23;5.30;;;;;;;;;;4993194;28;20429;-79
2023/05/05 03:20:12;;;;;;;10.02;5.20;;;;;;;;;;4993206;28;20434;-78
2023/05/05 03:22:39;;;;;;;10.85;5.15;;;;;;;;;;4991235;28;20414;-78
2023/05/05 03:25:06;;;;;;;10.10;5.10;;;;;;;;;;4990115;28;20446;-78
2023/05/05 03:27:32;;;;;;;11.57;5.50;;;;;;;;;;4989060;28;20457;-78
2023/05/05 03:29:58;;;;;;;8.65;5.50;;;;;;;;;;4992853;28;20410;-79
2023/05/05 03:32:26;;;;;;;8.75;5.50;;;;;;;;;;4989195;28;20445;-80
2023/05/05 03:34:53;;;;;;;10.60;5.07;;;;;;;;;;4990821;28;20616;-79
2023/05/05 03:37:19;;;;;;;13.25;5.80;;;;;;;;;;4988343;28;20438;-80
2023/05/05 03:39:46;;;;;;;10.63;5.38;;;;;;;;;;4990151;28;20530;-78
2023/05/05 03:42:12;;;;;;;7.45;5.20;;;;;;;;;;4989963;28;20434;-78
2023/05/05 03:44:40;;;;;;;7.03;5.30;;;;;;;;;;4992557;28;20426;-80
2023/05/05 03:47:06;;;;;;;10.45;5.65;;;;;;;;;;4993245;28;20419;-80
2023/05/05 03:49:34;;;;;;;8.45;5.03;;;;;;;;;;4992098;28;20426;-80
2023/05/05 03:52:01;;;;;;;9.63;5.53;;;;;;;;;;4993118;28;20923;-80
2023/05/05 03:54:27;;;;;;;10.70;5.10;;;;;;;;;;4992308;28;20418;-80
2023/05/05 03:56:54;;;;;;;12.38;5.40;;;;;;;;;;4992603;28;20912;-79
2023/05/05 03:59:21;;;;;;;9.38;5.20;;;;;;;;;;4988490;28;20427;-80
2023/05/05 04:01:48;;;;;;;12.45;5.47;;;;;;;;;;4992805;28;20434;-79
2023/05/05 04:04:17;;;;;;;9.52;4.88;;;;;;;;;;4992372;28;20461;-80
2023/05/05 04:06:44;;;;;;;9.93;5.40;;;;;;;;;;4992754;28;20964;-79
2023/05/05 04:09:12;;;;;;;9.57;4.90;;;;;;;;;;4992042;28;20430;-79
2023/05/05 04:11:39;;;;;;;12.77;4.93;;;;;;;;;;4989751;28;20438;-78
2023/05/05 04:14:05;;;;;;;13.18;5.38;;;;;;;;;;4992213;28;20445;-80
2023/05/05 04:16:32;;;;;;;10.02;5.72;;;;;;;;;;4988835;28;20425;-78
2023/05/05 04:18:58;;;;;;;11.13;5.63;;;;;;;;;;4995574;28;20434;-78
2023/05/05 04:21:24;;;;;;;11.43;5.65;;;;;;;;;;4985929;28;20430;-79
2023/05/05 04:23:52;;;;;;;10.90;5.40;;;;;;;;;;4991034;28;20422;-79
2023/05/05 04:26:19;;;;;;;9.18;5.38;;;;;;;;;;4989982;28;20438;-78
2023/05/05 04:28:45;;;;;;;7.78;4.82;;;;;;;;;;4991769;28;20788;-79
2023/05/05 04:31:11;;;;;;;10.20;5.40;;;;;;;;;;4989604;28;20801;-78
2023/05/05 04:33:40;;;;;;;12.30;5.57;;;;;;;;;;4989225;28;20461;-79
2023/05/05 04:36:07;;;;;;;9.88;5.55;;;;;;;;;;4991794;28;20430;-79
2023/05/05 04:38:34;;;;;;;10.32;5.65;;;;;;;;;;5006057;28;20437;-78
2023/05/05 04:41:05;;;;;;;8.77;5.22;;;;;;;;;;4991104;28;20437;-79
2023/05/05 04:43:31;;;;;;;8.02;5.13;;;;;;;;;;4986882;28;20442;-79
2023/05/05 04:45:57;;;;;;;7.50;4.93;;;;;;;;;;4990424;28;20463;-79
2023/05/05 04:48:24;;;;;;;7.82;5.07;;;;;;;;;;4991368;28;20449;-80
2023/05/05 04:50:51;;;;;;;12.07;5.55;;;;;;;;;;4991628;28;20437;-80
2023/05/05 04:53:17;;;;;;;9.82;5.38;;;;;;;;;;4991531;28;20423;-78
2023/05/05 04:55:44;;;;;;;10.60;5.30;;;;;;;;;;4993825;28;20436;-78
2023/05/05 04:58:11;;;;;;;10.63;5.63;;;;;;;;;;4991030;28;20429;-79
2023/05/05 05:00:38;;;;;;;8.77;5.20;;;;;;;;;;4990215;28;20439;-79
2023/05/05 05:03:06;;;;;;;10.38;4.93;;;;;;;;;;4991177;28;20938;-78
2023/05/05 05:05:33;;;;;;;10.38;5.28;;;;;;;;;;4989797;28;20488;-80
2023/05/05 05:07:59;;;;;;;11.00;5.22;;;;;;;;;;4990875;28;20426;-80
2023/05/05 05:10:26;;;;;;;9.75;5.57;;;;;;;;;;4990802;28;20426;-80
2023/05/05 05:12:52;;;;;;;11.65;5.20;;;;;;;;;;4989899;28;20901;-79
2023/05/05 05:15:20;;;;;;;10.68;5.50;;;;;;;;;;4992742;28;20430;-79
2023/05/05 05:17:46;;;;;;;9.48;5.60;;;;;;;;;;4990459;28;20439;-80
2023/05/05 05:20:13;;;;;;;8.07;5.47;;;;;;;;;;5006858;28;20437;-79
2023/05/05 05:22:39;;;;;;;7.82;5.40;;;;;;;;;;4992162;28;20430;-80
2023/05/05 05:25:06;;;;;;;9.32;5.28;;;;;;;;;;4991647;28;20817;-80
2023/05/05 05:27:33;;;;;;;12.23;5.40;;;;;;;;;;4991231;28;20434;-80
2023/05/05 05:29:59;;;;;;;10.02;5.15;;;;;;;;;;4991424;28;20418;-80
2023/05/05 05:32:27;;;;;;;14.73;5.63;;;;;;;;;;4989381;28;20445;-80
2023/05/05 05:34:53;;;;;;;9.55;5.07;;;;;;;;;;4986995;28;20959;-80
2023/05/05 05:37:20;;;;;;;10.38;6.00;;;;;;;;;;4990339;28;20440;-80
2023/05/05 05:39:51;;;;;;;11.57;5.50;;;;;;;;;;4990238;28;20435;-80
2023/05/05 05:42:17;;;;;;;9.20;5.90;;;;;;;;;;4986823;28;20426;-80
2023/05/05 05:44:45;;;;;;;14.43;6.10;;;;;;;;;;4991791;28;20430;-80
2023/05/05 05:47:11;;;;;;;9.93;5.30;;;;;;;;;;4988219;28;20426;-82
2023/05/05 05:49:39;;;;;;;8.45;5.30;;;;;;;;;;4992992;28;20796;-79
2023/05/05 05:52:05;;;;;;;13.00;5.15;;;;;;;;;;4988379;28;20943;-79
2023/05/05 05:54:33;;;;;;;9.07;5.10;;;;;;;;;;4999484;28;20851;-80
2023/05/05 05:56:59;;;;;;;11.50;5.63;;;;;;;;;;4989317;28;20466;-80
2023/05/05 05:59:26;;;;;;;12.13;5.05;;;;;;;;;;4992160;28;20430;-80
2023/05/05 06:01:52;;;;;;;10.90;5.33;;;;;;;;;;4992672;28;20501;-79
2023/05/05 06:04:20;;;;;;;9.85;4.70;;;;;;;;;;4995151;28;20434;-80
2023/05/05 06:06:48;;;;;;;11.20;5.30;;;;;;;;;;4991887;28;20810;-80
2023/05/05 06:09:15;;;;;;;8.13;5.10;;;;;;;;;;4996443;28;20442;-80
2023/05/05 06:11:41;;;;;;;9.90;5.38;;;;;;;;;;4990113;28;20411;-79
2023/05/05 06:14:07;;;;;;;10.18;5.00;;;;;;;;;;4989552;28;20908;-80
2023/05/05 06:16:34;;;;;;;9.23;5.03;;;;;;;;;;4993228;28;20900;-80
2023/05/05 06:19:00;;;;;;;10.02;5.68;;;;;;;;;;4993405;28;20441;-80
2023/05/05 06:21:27;;;;;;;11.80;5.40;;;;;;;;;;4992887;28;20896;-80
2023/05/05 06:23:54;;;;;;;10.30;5.57;;;;;;;;;;4995001;28;20414;-80
2023/05/05 06:26:21;;;;;;;12.35;5.60;;;;;;;;;;4994356;28;20414;-80
2023/05/05 06:28:47;;;;;;;9.52;5.53;;;;;;;;;;4993813;28;20430;-80
2023/05/05 06:31:14;;;;;;;9.52;5.20;;;;;;;;;;4993473;28;20431;-79
2023/05/05 06:33:40;;;;;;;11.00;5.60;;;;;;;;;;4993809;28;20450;-79
2023/05/05 06:36:07;;;;;;;10.13;5.40;;;;;;;;;;4994468;28;20429;-79
2023/05/05 06:38:33;;;;;;;9.53;5.50;;;;;;;;;;4993476;28;20804;-79
2023/05/05 06:41:01;;;;;;;14.30;5.40;;;;;;;;;;4994179;28;20445;-79
2023/05/05 06:43:30;;;;;;;9.77;4.95;;;;;;;;;;4991845;28;20932;-79
2023/05/05 06:45:56;;;;;;;13.20;5.30;;;;;;;;;;4994478;28;20432;-79
2023/05/05 06:48:22;;;;;;;7.97;4.70;;;;;;;;;;4992208;28;20436;-78
2023/05/05 06:50:49;;;;;;;8.88;5.50;;;;;;;;;;4991956;28;20438;-78
2023/05/05 06:53:15;;;;;;;10.55;5.60;;;;;;;;;;4992135;28;20437;-80
2023/05/05 06:55:43;;;;;;;11.23;6.55;;;;;;;;;;4989210;28;20426;-80
2023/05/05 06:58:10;;;;;;;8.50;5.63;;;;;;;;;;4993804;28;20426;-79
2023/05/05 07:00:37;;;;;;;9.20;6.18;;;;;;;;;;4993244;28;20437;-80
2023/05/05 07:03:04;;;;;;;12.13;5.40;;;;;;;;;;4989625;28;20422;-79
2023/05/05 07:05:31;;;;;;;11.80;6.20;;;;;;;;;;4993711;28;20458;-80
2023/05/05 07:07:58;;;;;;;9.88;6.05;;;;;;;;;;4993082;28;20415;-81
2023/05/05 07:10:25;;;;;;;7.88;5.65;;;;;;;;;;4994623;28;20442;-80
2023/05/05 07:12:53;;;;;;;8.48;5.32;;;;;;;;;;4993517;28;21060;-80
2023/05/05 07:15:21;;;;;;;9.85;6.40;;;;;;;;;;4993738;28;20935;-81
2023/05/05 07:17:48;;;;;;;9.77;5.85;;;;;;;;;;4994108;28;20419;-80
2023/05/05 07:20:14;;;;;;;15.88;6.70;;;;;;;;;;4990358;28;20964;-81
2023/05/05 07:22:41;;;;;;;10.00;6.00;;;;;;;;;;4990589;28;20525;-79
2023/05/05 07:25:08;;;;;;;10.82;6.30;;;;;;;;;;4994381;28;20797;-79
2023/05/05 07:27:35;;;;;;;9.60;6.10;;;;;;;;;;4991136;28;20840;-82
2023/05/05 07:30:01;;;;;;;8.40;6.50;;;;;;;;;;4993555;28;20438;-81
2023/05/05 07:32:29;;;;;;;11.65;6.88;;;;;;;;;;4991257;28;20429;-80
2023/05/05 07:34:56;;;;;;;9.10;5.93;;;;;;;;;;4993899;28;20430;-80
2023/05/05 07:37:22;;;;;;;11.57;6.75;;;;;;;;;;4993360;28;20422;-81
2023/05/05 07:39:49;;;;;;;11.20;6.80;;;;;;;;;;4985797;28;20414;-81
2023/05/05 07:42:15;;;;;;;14.35;7.80;;;;;;;;;;4993123;28;20418;-79
2023/05/05 07:44:42;;;;;;;13.73;7.50;;;;;;;;;;4993915;28;20426;-81
2023/05/05 07:47:08;;;;;;;14.10;7.82;;;;;;;;;;4993056;28;20426;-79
2023/05/05 07:49:36;;;;;;;11.05;7.18;;;;;;;;;;4994889;28;20434;-80
2023/05/05 07:52:02;;;;;;;13.45;7.05;;;;;;;;;;4993148;28;20430;-80
2023/05/05 07:54:29;;;;;;;9.88;7.70;;;;;;;;;;4990083;28;20920;-79
2023/05/05 07:56:56;;;;;;;12.25;7.90;;;;;;;;;;4993428;28;20437;-79
2023/05/05 07:59:22;;;;;;;15.18;8.63;;;;;;;;;;4991280;28;20428;-80
2023/05/05 08:01:49;;;;;;;11.15;8.13;;;;;;;;;;4987508;28;20433;-83
2023/05/05 08:04:15;;;;;;;13.52;7.72;;;;;;;;;;4990200;28;20438;-81
2023/05/05 08:06:43;;;;;;;16.27;8.50;;;;;;;;;;4992187;28;20415;-80
2023/05/05 08:09:09;;;;;;;11.77;8.25;;;;;;;;;;4991905;28;20431;-81
2023/05/05 08:11:37;;;;;;;13.97;8.10;;;;;;;;;;4986599;28;20406;-81
2023/05/05 08:14:04;;;;;;;13.67;8.50;;;;;;;;;;4993891;28;20442;-80
2023/05/05 08:16:30;;;;;;;14.32;9.00;;;;;;;;;;4991613;28;20441;-80
2023/05/05 08:18:57;;;;;;;13.05;8.00;;;;;;;;;;4991719;28;20800;-80
2023/05/05 08:21:23;;;;;;;11.52;7.85;;;;;;;;;;4987449;28;20430;-80
2023/05/05 08:23:51;;;;;;;13.60;8.50;;;;;;;;;;4993010;28;20425;-80
2023/05/05 08:26:18;;;;;;;10.45;7.47;;;;;;;;;;4992447;28;20410;-81
2023/05/05 08:28:45;;;;;;;15.40;8.88;;;;;;;;;;4991320;28;20426;-81
2023/05/05 08:31:12;;;;;;;11.93;7.80;;;;;;;;;;4993534;28;20506;-83
2023/05/05 08:33:38;;;;;;;10.98;7.70;;;;;;;;;;4987654;28;20441;-82
2023/05/05 08:36:05;;;;;;;13.23;8.05;;;;;;;;;;4991201;28;20422;-81
2023/05/05 08:38:32;;;;;;;10.70;8.27;;;;;;;;;;4993103;28;20804;-81
2023/05/05 08:40:59;;;;;;;13.05;8.05;;;;;;;;;;4993237;28;20466;-82
2023/05/05 08:43:28;;;;;;;10.90;7.90;;;;;;;;;;4992727;28;20431;-81
2023/05/05 08:45:55;;;;;;;10.85;7.97;;;;;;;;;;4987267;28;20437;-82
2023/05/05 08:48:23;;;;;;;14.18;7.68;;;;;;;;;;4994172;28;20928;-80
2023/05/05 08:50:51;;;;;;;11.57;7.40;;;;;;;;;;4993268;28;20414;-81
2023/05/05 08:53:21;;;;;;;13.70;8.45;;;;;;;;;;4987230;28;20429;-80
2023/05/05 08:55:50;;;;;;;13.60;7.57;;;;;;;;;;4992983;28;20459;-80
2023/05/05 08:58:19;;;;;;;12.77;8.40;;;;;;;;;;4991147;28;20442;-82
2023/05/05 09:00:45;;;;;;;11.07;7.40;;;;;;;;;;4995388;28;20432;-82
2023/05/05 09:03:13;;;;;;;13.55;7.70;;;;;;;;;;4991368;28;20430;-81
2023/05/05 09:05:41;;;;;;;13.82;8.05;;;;;;;;;;4994777;28;20978;-80
2023/05/05 09:08:08;;;;;;;11.65;7.65;;;;;;;;;;4991814;28;20434;-82
2023/05/05 09:10:35;;;;;;;11.13;7.67;;;;;;;;;;4992837;28;20418;-83
2023/05/05 09:13:01;;;;;;;14.50;8.30;;;;;;;;;;4990452;28;20441;-81
2023/05/05 09:15:29;;;;;;;12.77;8.07;;;;;;;;;;4992713;28;20421;-81
2023/05/05 09:17:56;;;;;;;14.38;7.85;;;;;;;;;;4988214;28;20537;-81
2023/05/05 09:20:23;;;;;;;12.35;7.60;;;;;;;;;;4989081;28;20458;-82
2023/05/05 09:22:49;;;;;;;11.87;8.20;;;;;;;;;;4992565;28;20426;-82
2023/05/05 09:25:16;;;;;;;12.40;8.60;;;;;;;;;;4996629;28;20539;-81
2023/05/05 09:27:44;;;;;;;12.40;7.75;;;;;;;;;;4993322;28;20437;-81
2023/05/05 09:30:12;;;;;;;13.13;8.55;;;;;;;;;;4995230;28;20430;-81
2023/05/05 09:32:44;;;;;;;12.63;8.70;;;;;;;;;;4984686;28;20437;-82
2023/05/05 09:35:11;;;;;;;11.43;8.40;;;;;;;;;;4996771;28;20430;-82
2023/05/05 09:37:37;;;;;;;12.45;8.30;;;;;;;;;;4996441;28;20441;-81
2023/05/05 09:40:05;;;;;;;10.18;7.70;;;;;;;;;;4992907;28;20434;-80
2023/05/05 09:42:32;;;;;;;10.63;7.87;;;;;;;;;;4992850;28;20426;-81
2023/05/05 09:44:58;;;;;;;10.35;7.30;;;;;;;;;;4998467;28;20445;-81
2023/05/05 09:47:33;;;;;;;11.43;7.85;;;;;;;;;;4994442;28;20433;-81
2023/05/05 09:50:01;;;;;;;13.43;7.35;;;;;;;;;;4994699;28;20437;-81
2023/05/05 09:52:29;;;;;;;13.05;7.57;;;;;;;;;;4993859;28;20430;-80
2023/05/05 09:54:56;;;;;;;12.65;7.30;;;;;;;;;;4993221;28;20911;-81
2023/05/05 09:57:26;;;;;;;9.18;6.43;;;;;;;;;;4995868;28;20422;-82
2023/05/05 09:59:55;;;;;;;8.35;6.78;;;;;;;;;;4985724;28;20784;-80
2023/05/05 10:02:21;;;;;;;10.05;7.10;;;;;;;;;;4994492;28;20457;-81
2023/05/05 10:04:47;;;;;;;9.88;7.35;;;;;;;;;;4993848;28;20442;-80
2023/05/05 10:07:23;;;;;;;9.63;6.38;;;;;;;;;;4992181;28;20422;-80
2023/05/05 10:09:50;;;;;;;8.88;6.65;;;;;;;;;;4994541;28;20442;-80
2023/05/05 10:12:16;;;;;;;13.60;6.70;;;;;;;;;;4986217;28;20420;-80
2023/05/05 10:14:43;;;;;;;11.68;7.45;;;;;;;;;;4990124;28;20440;-80
2023/05/05 10:17:10;;;;;;;12.75;7.30;;;;;;;;;;4994287;28;20426;-80
2023/05/05 10:19:36;;;;;;;8.82;6.93;;;;;;;;;;4995559;28;20426;-81
2023/05/05 10:22:07;;;;;;;11.43;7.72;;;;;;;;;;4993629;28;20469;-79
2023/05/05 10:24:38;;;;;;;9.82;7.22;;;;;;;;;;4994372;28;20518;-80
2023/05/05 10:27:11;;;;;;;8.80;6.60;;;;;;;;;;4993753;28;20502;-78
2023/05/05 10:29:39;;;;;;;10.50;6.90;;;;;;;;;;4992048;28;20426;-80
2023/05/05 10:32:09;;;;;;;13.27;6.90;;;;;;;;;;4992019;28;20506;-80
2023/05/05 10:34:38;;;;;;;11.73;6.85;;;;;;;;;;4987825;28;20435;-80
2023/05/05 10:37:06;;;;;;;12.93;7.90;;;;;;;;;;4995756;28;20475;-79
2023/05/05 10:39:32;;;;;;;10.80;7.47;;;;;;;;;;4995065;28;20434;-80
2023/05/05 10:42:01;;;;;;;13.27;7.78;;;;;;;;;;4994802;28;20547;-83
2023/05/05 10:44:30;;;;;;;13.52;7.13;;;;;;;;;;4993535;28;20809;-83
2023/05/05 10:46:57;;;;;;;11.90;7.30;;;;;;;;;;4986953;28;20430;-81
2023/05/05 10:49:28;;;;;;;11.23;8.05;;;;;;;;;;4996011;28;20434;-82
2023/05/05 10:51:57;;;;;;;10.93;7.57;;;;;;;;;;4995052;28;20423;-80
2023/05/05 10:54:27;;;;;;;11.23;7.20;;;;;;;;;;4995149;28;20437;-80
2023/05/05 10:56:55;;;;;;;11.70;8.10;;;;;;;;;;4992559;28;20825;-81
2023/05/05 10:59:42;;;;;;;9.85;7.82;;;;;;;;;;4994523;28;20438;-80
2023/05/05 11:02:18;;;;;;;10.88;7.60;;;;;;;;;;4995012;28;20457;-80
2023/05/05 11:05:02;;;;;;;11.68;7.78;;;;;;;;;;4990723;28;21014;-82
2023/05/05 11:07:29;;;;;;;11.80;7.70;;;;;;;;;;4996376;28;20430;-80
2023/05/05 11:10:00;;;;;;;11.65;7.93;;;;;;;;;;4986584;28;20434;-80
2023/05/05 11:12:29;;;;;;;9.48;7.97;;;;;;;;;;4987787;28;20480;-81
2023/05/05 11:15:14;;;;;;;10.57;8.00;;;;;;;;;;4993742;28;20442;-81
2023/05/05 11:17:45;;;;;;;11.65;7.20;;;;;;;;;;4993571;28;20442;-80
2023/05/05 11:20:13;;;;;;;13.55;7.38;;;;;;;;;;4999412;28;20449;-81
2023/05/05 11:23:00;;;;;;;8.60;6.80;;;;;;;;;;4990530;28;20430;-79
2023/05/05 11:25:46;;;;;;;11.98;7.28;;;;;;;;;;4995940;28;20435;-81
2023/05/05 11:28:13;;;;;;;7.97;7.13;;;;;;;;;;4994249;28;20967;-80
2023/05/05 11:30:54;;;;;;;11.55;7.25;;;;;;;;;;4997209;28;20449;-80
2023/05/05 11:33:25;;;;;;;12.63;7.32;;;;;;;;;;4996331;28;20450;-80
2023/05/05 11:35:55;;;;;;;9.93;7.32;;;;;;;;;;4989876;28;20840;-81
2023/05/05 11:38:25;;;;;;;8.63;6.90;;;;;;;;;;4996415;28;20433;-80
2023/05/05 11:40:53;;;;;;;11.03;7.50;;;;;;;;;;4990085;28;20430;-81
2023/05/05 11:43:19;;;;;;;8.60;7.53;;;;;;;;;;4991061;28;20418;-81
2023/05/05 11:45:46;;;;;;;9.48;7.40;;;;;;;;;;4995677;28;20430;-81
2023/05/05 11:48:26;;;;;;;11.43;8.32;;;;;;;;;;4998270;28;20422;-83
2023/05/05 11:50:53;;;;;;;13.43;8.98;;;;;;;;;;4991795;28;20434;-80
2023/05/05 11:53:20;;;;;;;8.52;7.28;;;;;;;;;;4995593;28;20418;-80
2023/05/05 11:55:46;;;;;;;10.43;7.80;;;;;;;;;;4990730;28;20931;-80
2023/05/05 11:58:18;;;;;;;11.52;7.90;;;;;;;;;;4996594;28;20431;-79
2023/05/05 12:00:45;;;;;;;14.88;8.00;;;;;;;;;;4991555;28;20436;-80
2023/05/05 12:03:11;;;;;;;9.60;7.78;;;;;;;;;;4994196;28;20430;-80
2023/05/05 12:05:40;;;;;;;9.65;8.10;;;;;;;;;;4995818;28;20786;-81
2023/05/05 12:08:06;;;;;;;13.40;8.68;;;;;;;;;;4993821;28;20441;-81
2023/05/05 12:10:32;;;;;;;9.60;8.70;;;;;;;;;;4999015;28;20431;-80
2023/05/05 12:12:59;;;;;;;14.10;8.73;;;;;;;;;;4990031;28;20938;-81
2023/05/05 12:15:29;;;;;;;11.93;8.63;;;;;;;;;;4991624;28;20434;-80
2023/05/05 12:17:55;;;;;;;12.25;8.05;;;;;;;;;;4994556;28;20477;-79
2023/05/05 12:20:29;;;;;;;14.40;8.90;;;;;;;;;;4995289;28;20418;-80
2023/05/05 12:23:00;;;;;;;11.90;7.93;;;;;;;;;;4995498;28;20958;-79
2023/05/05 12:25:34;;;;;;;14.90;9.30;;;;;;;;;;4992810;28;20436;-78
2023/05/05 12:28:00;;;;;;;11.43;9.20;;;;;;;;;;4994533;28;20430;-80
2023/05/05 12:30:26;;;;;;;11.20;9.38;;;;;;;;;;4996341;28;20438;-81
2023/05/05 12:33:00;;;;;;;15.48;10.50;;;;;;;;;;4987790;28;20431;-80
2023/05/05 12:35:26;;;;;;;14.30;11.55;;;;;;;;;;4993774;28;20434;-80
2023/05/05 12:37:53;;;;;;;15.77;11.60;;;;;;;;;;4994839;28;20414;-80
2023/05/05 12:40:34;;;;;;;20.90;11.30;;;;;;;;;;4992213;28;20496;-80
2023/05/05 12:43:03;;;;;;;14.70;10.57;;;;;;;;;;4979720;28;20798;-79
2023/05/05 12:45:29;;;;;;;13.00;9.60;;;;;;;;;;4995408;28;20449;-81
2023/05/05 12:47:56;;;;;;;15.25;10.65;;;;;;;;;;4991002;28;20425;-81
2023/05/05 12:50:29;;;;;;;15.85;11.40;;;;;;;;;;4993378;28;20430;-79
2023/05/05 12:52:56;;;;;;;15.85;11.35;;;;;;;;;;4986231;28;20534;-81
2023/05/05 12:55:35;;;;;;;15.13;10.97;;;;;;;;;;4988414;28;20433;-82
2023/05/05 12:58:03;;;;;;;14.45;10.20;;;;;;;;;;4990769;28;20426;-82
2023/05/05 13:00:29;;;;;;;15.73;10.83;;;;;;;;;;4992256;28;20426;-81
2023/05/05 13:02:56;;;;;;;14.02;9.90;;;;;;;;;;4990434;28;20453;-82
2023/05/05 13:05:30;;;;;;;11.47;9.50;;;;;;;;;;4993832;28;20935;-83
2023/05/05 13:07:57;;;;;;;16.40;10.50;;;;;;;;;;4995076;28;20426;-82
2023/05/05 13:10:23;;;;;;;13.30;10.60;;;;;;;;;;4993265;28;20484;-81
2023/05/05 13:12:50;;;;;;;14.27;10.48;;;;;;;;;;5007148;28;20426;-81
2023/05/05 13:15:18;;;;;;;13.27;10.73;;;;;;;;;;4994191;28;20435;-81
2023/05/05 13:17:44;;;;;;;17.73;10.93;;;;;;;;;;4993349;28;20430;-80
2023/05/05 13:20:11;;;;;;;14.82;11.65;;;;;;;;;;4989381;28;20464;-80
2023/05/05 13:22:37;;;;;;;12.90;11.05;;;;;;;;;;4992693;28;20932;-79
2023/05/05 13:25:04;;;;;;;12.52;10.85;;;;;;;;;;4993021;28;20422;-79
2023/05/05 13:27:32;;;;;;;17.85;10.93;;;;;;;;;;4992105;28;20816;-79
2023/05/05 13:29:58;;;;;;;14.60;11.17;;;;;;;;;;4993092;28;20430;-80
2023/05/05 13:32:26;;;;;;;11.95;10.10;;;;;;;;;;4992119;28;20801;-80
2023/05/05 13:34:52;;;;;;;13.50;10.73;;;;;;;;;;4991660;28;20430;-79
2023/05/05 13:37:19;;;;;;;14.80;10.80;;;;;;;;;;4992565;28;20426;-79
2023/05/05 13:39:47;;;;;;;13.05;10.73;;;;;;;;;;4994160;28;20437;-79
2023/05/05 13:42:16;;;;;;;15.23;10.40;;;;;;;;;;4990150;28;20427;-80
2023/05/05 13:44:43;;;;;;;12.50;10.30;;;;;;;;;;5006809;28;20477;-79
2023/05/05 13:47:10;;;;;;;14.73;9.73;;;;;;;;;;4991167;28;20426;-78
2023/05/05 13:49:39;;;;;;;10.48;9.38;;;;;;;;;;4992796;28;20433;-80
2023/05/05 13:52:06;;;;;;;15.50;10.60;;;;;;;;;;4987938;28;20424;-82
2023/05/05 13:54:33;;;;;;;13.68;9.55;;;;;;;;;;4989439;28;20436;-81
2023/05/05 13:56:59;;;;;;;11.15;9.90;;;;;;;;;;4991042;28;20416;-80
2023/05/05 13:59:26;;;;;;;11.77;10.13;;;;;;;;;;4991448;28;20434;-80
2023/05/05 14:01:52;;;;;;;11.07;9.52;;;;;;;;;;4991343;28;20442;-81
2023/05/05 14:04:19;;;;;;;10.93;9.68;;;;;;;;;;4987628;28;20946;-81
2023/05/05 14:06:47;;;;;;;14.13;10.52;;;;;;;;;;4990227;28;20419;-80
2023/05/05 14:09:13;;;;;;;13.23;9.87;;;;;;;;;;5009040;28;20426;-80
2023/05/05 14:11:40;;;;;;;10.23;9.10;;;;;;;;;;4996705;28;20421;-79
2023/05/05 14:14:06;;;;;;;12.73;9.10;;;;;;;;;;4995017;28;20509;-78
2023/05/05 14:16:33;;;;;;;13.45;8.98;;;;;;;;;;4991753;28;20896;-78
2023/05/05 14:18:59;;;;;;;10.48;9.00;;;;;;;;;;4994103;28;20423;-78
2023/05/05 14:21:26;;;;;;;10.73;9.63;;;;;;;;;;4994526;28;20434;-79
2023/05/05 14:23:54;;;;;;;10.85;9.75;;;;;;;;;;4993492;28;20462;-78
2023/05/05 14:26:20;;;;;;;11.27;9.45;;;;;;;;;;4991852;28;20774;-78
2023/05/05 14:28:46;;;;;;;14.00;9.30;;;;;;;;;;4994604;28;20429;-78
2023/05/05 14:31:13;;;;;;;11.48;9.43;;;;;;;;;;4993064;28;20928;-78
2023/05/05 14:33:39;;;;;;;13.85;10.10;;;;;;;;;;4992620;28;20438;-78
2023/05/05 14:36:07;;;;;;;10.40;9.40;;;;;;;;;;4991320;28;20429;-78
2023/05/05 14:38:33;;;;;;;11.57;9.40;;;;;;;;;;4985929;28;20496;-78